Aviation Digital Data Service (ADDS)

Output produced by METARs form (1132 UTC 17 July 2018)
found at http://www.aviationweather.gov/adds/metars/
 
KPIT 171051Z 24004KT 9SM BKN008 BKN085 22/22 A2990 RMK AO2 LTG DSNT NE AND E SLP123 T02220217 $
K2G4 171120Z AUTO 24004KT 10SM SCT006 BKN013 OVC037 18/18 A3001 RMK AO1
KAFJ 171056Z AUTO 26004KT 8SM -RA BKN036 BKN045 OVC060 22/22 A2994 RMK AO2 LTG DSNT E RAE15B47 SLP128 P0001 T02220217
KAGC 171053Z 21005KT 9SM FEW012 BKN024 OVC034 22/22 A2990 RMK AO2 LTG DSNT NE AND E RAB24E37 SLP119 P0001 T02220217
KBTP 171056Z AUTO 25003KT 4SM BR OVC006 22/22 A2991 RMK AO2 LTG DSNT E AND SE TSB11E27RAE22 SLP124 P0001 T02220217
KBVI 171047Z 28006KT 3SM BR OVC004 22/22 A2991 RMK LTG DSNT E
KDUJ 171053Z AUTO 25007KT 1 1/4SM BR OVC003 21/21 A2992 RMK AO2 SLPNO T02110211
KFKL 171127Z AUTO 28005KT 3SM BR BKN004 OVC011 22/21 A2992 RMK AO2 LTG DSNT E CIG 003V007
KHLG 171129Z 24003KT 5SM BR BKN006 OVC010 23/22 A2992 RMK AO2 CIG 003V009 T02280217
KIDI 171115Z AUTO 00000KT 3SM BR FEW005 OVC010 22/22 A2995 RMK A01
KLBE 171050Z 22008KT 3SM -RA BKN016 22/22 A2992
KMGW 171053Z 00000KT 8SM OVC012 22/21 A2994 RMK AO2 SLP127 T02170211
KPHD 171109Z AUTO 00000KT 5SM BR OVC009 23/22 A2992 RMK AO2 T02280222
KUCP 171110Z AUTO 27005KT 8SM OVC013 23/23 A2991 RMK AO2
KZZV 171127Z AUTO 29004KT 5SM BR OVC008 23/22 A2992 RMK AO2 RAB02E14 CIG 005V011 P0000 T02330217